Time;durP1;ratioP1;P1;durP2;ratioP2;P2;SDS_P1;SDS_P2;PMS_P1;PMS_P2;Temp;Humidity;BMP_temperature;BMP_pressure;BME280_temperature;BME280_humidity;BME280_pressure;Samples;Min_cycle;Max_cycle;Signal;HPM_P1;HPM_P2
2023/02/27 00:01:51;;;;;;;6.50;1.90;;;2.40;99.90;;;;;;5028808;23;20172;-75
2023/02/27 00:04:16;;;;;;;6.00;1.42;;;2.60;99.90;;;;;;5017492;28;20220;-78
2023/02/27 00:06:42;;;;;;;10.38;1.77;;;2.50;99.90;;;;;;5017953;28;20656;-78
2023/02/27 00:09:08;;;;;;;9.48;2.00;;;2.50;99.90;;;;;;5018701;28;20208;-76
2023/02/27 00:11:33;;;;;;;4.32;1.33;;;2.50;99.90;;;;;;5016601;28;20157;-75
2023/02/27 00:13:59;;;;;;;7.60;1.58;;;2.40;99.90;;;;;;5016258;28;20704;-77
2023/02/27 00:16:24;;;;;;;2.85;1.65;;;2.50;99.90;;;;;;5016476;28;20226;-79
2023/02/27 00:18:50;;;;;;;3.70;1.27;;;2.50;99.90;;;;;;5016585;28;20168;-86
2023/02/27 00:21:16;;;;;;;10.50;2.33;;;2.50;99.90;;;;;;5016261;28;20536;-85
2023/02/27 00:23:41;;;;;;;10.55;1.38;;;2.60;99.90;;;;;;5015854;28;20194;-84
2023/02/27 00:26:07;;;;;;;4.28;1.60;;;2.50;99.90;;;;;;5016798;28;20179;-82
2023/02/27 00:28:32;;;;;;;7.97;1.40;;;2.40;99.90;;;;;;5016178;28;20215;-80
2023/02/27 00:30:58;;;;;;;5.82;1.42;;;2.40;99.90;;;;;;5016039;28;20664;-89
2023/02/27 00:33:23;;;;;;;3.22;1.25;;;2.40;99.90;;;;;;5015849;28;20250;-78
2023/02/27 00:36:00;;;;;;;5.57;1.30;;;2.30;99.90;;;;;;4998389;28;20628;-85
2023/02/27 00:38:26;;;;;;;5.28;1.33;;;2.40;99.90;;;;;;5015352;28;20164;-80
2023/02/27 00:40:52;;;;;;;4.72;1.23;;;2.40;99.90;;;;;;4997773;28;20180;-78
2023/02/27 00:43:18;;;;;;;8.18;1.63;;;2.20;99.90;;;;;;5016336;28;20192;-88
2023/02/27 00:45:44;;;;;;;1.45;1.13;;;2.00;99.90;;;;;;5015716;28;20639;-80
2023/02/27 00:48:09;;;;;;;5.43;1.35;;;2.10;99.90;;;;;;4997989;28;20216;-87
2023/02/27 00:50:35;;;;;;;1.52;1.42;;;2.20;99.90;;;;;;5015122;28;20225;-82
2023/02/27 00:53:01;;;;;;;11.35;1.80;;;2.10;99.90;;;;;;5014684;28;20624;-78
2023/02/27 00:55:26;;;;;;;2.03;1.20;;;2.20;99.90;;;;;;4997172;28;20200;-77
2023/02/27 00:57:52;;;;;;;6.95;1.50;;;2.20;99.90;;;;;;5014697;28;20246;-77
2023/02/27 01:00:18;;;;;;;5.47;1.53;;;2.30;99.90;;;;;;5014672;28;20176;-77
2023/02/27 01:02:43;;;;;;;4.22;1.48;;;2.20;99.90;;;;;;5014487;28;20690;-78
2023/02/27 01:05:09;;;;;;;2.10;1.70;;;2.10;99.90;;;;;;5014625;28;20196;-80
2023/02/27 01:07:36;;;;;;;5.88;1.83;;;2.00;99.90;;;;;;5014580;28;20625;-77
2023/02/27 01:10:03;;;;;;;7.43;1.60;;;2.10;99.90;;;;;;4997049;28;20165;-77
2023/02/27 01:12:28;;;;;;;4.22;1.40;;;2.10;99.90;;;;;;5014727;28;20218;-77
2023/02/27 01:14:54;;;;;;;10.20;1.60;;;2.20;99.90;;;;;;5014355;28;20561;-77
2023/02/27 01:17:20;;;;;;;5.15;1.13;;;2.30;99.90;;;;;;5014286;28;20180;-77
2023/02/27 01:19:45;;;;;;;4.18;1.40;;;2.10;99.90;;;;;;5014213;28;20625;-77
2023/02/27 01:22:11;;;;;;;3.17;1.02;;;2.10;99.90;;;;;;5014068;28;20582;-76
2023/02/27 01:24:37;;;;;;;9.35;1.40;;;2.20;99.90;;;;;;5014173;28;20189;-77
2023/02/27 01:27:02;;;;;;;1.10;1.02;;;2.20;99.90;;;;;;5014361;28;20173;-77
2023/02/27 01:29:28;;;;;;;2.05;1.25;;;2.30;99.90;;;;;;5014444;28;20187;-77
2023/02/27 01:31:54;;;;;;;3.58;1.50;;;2.10;99.90;;;;;;5014394;28;20156;-77
2023/02/27 01:34:19;;;;;;;6.20;1.45;;;2.20;99.90;;;;;;5014056;28;20714;-77
2023/02/27 01:36:45;;;;;;;7.47;1.40;;;1.90;99.90;;;;;;5014152;28;20169;-77
2023/02/27 01:39:11;;;;;;;1.42;1.10;;;1.90;99.90;;;;;;5014239;28;20240;-79
2023/02/27 01:41:36;;;;;;;11.32;1.42;;;2.00;99.90;;;;;;5014248;28;20196;-79
2023/02/27 01:44:11;;;;;;;2.45;1.25;;;2.10;99.90;;;;;;5013777;28;20184;-79
2023/02/27 01:46:37;;;;;;;7.43;1.23;;;2.20;99.90;;;;;;4996956;28;20581;-77
2023/02/27 01:49:11;;;;;;;16.48;2.80;;;2.40;99.90;;;;;;5013937;28;20200;-79
2023/02/27 01:51:45;;;;;;;3.88;1.05;;;2.40;99.90;;;;;;5013885;28;20163;-77
2023/02/27 01:54:13;;;;;;;1.70;1.13;;;2.40;99.90;;;;;;5013515;28;20192;-77
2023/02/27 01:56:40;;;;;;;2.47;1.25;;;2.40;99.90;;;;;;5013963;28;20192;-77
2023/02/27 01:59:07;;;;;;;7.05;1.48;;;2.20;99.90;;;;;;5013903;28;20161;-78
2023/02/27 02:01:34;;;;;;;3.40;1.10;;;2.50;99.90;;;;;;5013875;28;20180;-77
2023/02/27 02:04:25;;;;;;;3.17;1.20;;;2.60;99.90;;;;;;5013556;28;20216;-77
2023/02/27 02:07:00;;;;;;;7.75;1.20;;;2.30;99.90;;;;;;5013891;28;20247;-77
2023/02/27 02:09:29;;;;;;;5.05;1.13;;;2.30;99.90;;;;;;5013909;28;20198;-77
2023/02/27 02:11:55;;;;;;;2.93;1.60;;;2.00;99.90;;;;;;4996611;28;20165;-77
2023/02/27 02:14:21;;;;;;;7.57;1.50;;;1.90;99.90;;;;;;5013537;28;20218;-77
2023/02/27 02:17:17;;;;;;;2.80;1.35;;;1.90;99.90;;;;;;5014067;28;20532;-77
2023/02/27 02:20:25;;;;;;;2.13;1.15;;;2.00;99.90;;;;;;5014035;28;20169;-78
2023/02/27 02:23:10;;;;;;;4.75;1.23;;;2.00;99.90;;;;;;5014080;28;20192;-77
2023/02/27 02:25:49;;;;;;;7.65;1.30;;;1.90;99.90;;;;;;5013971;28;20196;-77
2023/02/27 02:28:20;;;;;;;5.75;1.27;;;2.10;99.90;;;;;;5014067;28;20584;-77
2023/02/27 02:31:35;;;;;;;1.60;1.15;;;2.10;99.90;;;;;;5013190;28;20219;-77
2023/02/27 02:34:37;;;;;;;2.72;1.73;;;2.00;99.90;;;;;;5013693;28;20271;-77
2023/02/27 02:37:23;;;;;;;6.72;1.05;;;2.00;99.90;;;;;;5013651;28;20226;-77
2023/02/27 02:39:52;;;;;;;1.40;1.10;;;2.10;99.90;;;;;;5012920;28;20168;-78
2023/02/27 02:42:50;;;;;;;5.03;1.30;;;2.10;99.90;;;;;;5013607;28;20164;-79
2023/02/27 02:45:26;;;;;;;3.45;1.20;;;1.90;99.90;;;;;;5013897;28;20176;-79
2023/02/27 02:48:12;;;;;;;3.35;1.05;;;2.00;99.90;;;;;;5013819;28;20203;-77
2023/02/27 02:50:44;;;;;;;5.20;1.30;;;2.00;99.90;;;;;;4996294;28;20660;-77
2023/02/27 02:53:29;;;;;;;2.30;1.83;;;2.10;99.90;;;;;;5013711;28;20192;-77
2023/02/27 02:56:20;;;;;;;2.83;1.73;;;2.10;99.90;;;;;;4996672;28;20172;-77
2023/02/27 02:58:56;;;;;;;2.53;1.27;;;2.00;99.90;;;;;;5014020;28;20169;-80
2023/02/27 03:01:40;;;;;;;5.15;1.23;;;1.80;99.90;;;;;;4996820;28;20262;-77
2023/02/27 03:04:15;;;;;;;7.53;1.38;;;1.50;99.90;;;;;;5014844;28;20192;-78
2023/02/27 03:06:51;;;;;;;2.15;1.23;;;1.50;99.90;;;;;;5014768;28;20249;-77
2023/02/27 03:09:52;;;;;;;5.13;1.73;;;1.50;99.90;;;;;;5014380;28;20207;-84
2023/02/27 03:12:22;;;;;;;2.80;1.00;;;1.70;99.90;;;;;;4973127;28;20241;-82
2023/02/27 03:15:12;;;;;;;3.37;1.47;;;1.70;99.90;;;;;;5013812;28;20160;-79
2023/02/27 03:18:07;;;;;;;4.78;1.50;;;1.70;99.90;;;;;;5034469;28;20179;-78
2023/02/27 03:20:41;;;;;;;2.67;1.47;;;1.50;99.90;;;;;;5035710;28;20256;-79
2023/02/27 03:23:22;;;;;;;7.30;1.70;;;1.40;99.90;;;;;;5035679;28;20198;-78
2023/02/27 03:25:49;;;;;;;1.93;1.43;;;1.70;99.90;;;;;;5036649;28;20263;-80
2023/02/27 03:28:23;;;;;;;6.38;1.52;;;1.70;99.90;;;;;;5019632;28;20216;-79
2023/02/27 03:31:04;;;;;;;3.13;1.17;;;1.70;99.90;;;;;;5036999;28;20156;-79
2023/02/27 03:33:36;;;;;;;3.38;1.35;;;1.60;99.90;;;;;;5036259;28;20181;-78
2023/02/27 03:36:20;;;;;;;3.60;1.53;;;1.50;99.90;;;;;;5036583;28;20237;-76
2023/02/27 03:39:04;;;;;;;3.97;1.17;;;1.50;99.90;;;;;;5034815;28;20249;-79
2023/02/27 03:41:34;;;;;;;4.73;1.27;;;1.40;99.90;;;;;;5038061;28;20164;-77
2023/02/27 03:44:18;;;;;;;4.63;1.60;;;1.40;99.90;;;;;;5034717;28;20203;-77
2023/02/27 03:46:44;;;;;;;2.03;1.20;;;1.60;99.90;;;;;;5026083;28;20156;-77
2023/02/27 03:49:10;;;;;;;3.23;1.40;;;1.40;99.90;;;;;;5026535;28;20248;-78
2023/02/27 03:51:35;;;;;;;4.53;1.73;;;1.50;99.90;;;;;;5028175;28;20173;-79
2023/02/27 03:54:04;;;;;;;6.30;1.97;;;1.50;99.90;;;;;;5005268;28;20227;-77
2023/02/27 03:56:54;;;;;;;6.40;1.33;;;1.40;99.90;;;;;;5022324;28;20207;-77
2023/02/27 03:59:22;;;;;;;3.50;1.50;;;1.50;99.90;;;;;;5006388;28;20180;-77
2023/02/27 04:01:48;;;;;;;6.20;1.42;;;1.50;99.90;;;;;;5024327;28;20251;-77
2023/02/27 04:04:16;;;;;;;4.45;1.50;;;1.50;99.90;;;;;;5025288;28;20192;-78
2023/02/27 04:07:24;;;;;;;5.50;1.58;;;1.70;99.90;;;;;;5026321;28;20171;-81
2023/02/27 04:10:14;;;;;;;11.68;1.83;;;1.60;99.90;;;;;;5024463;28;20266;-78
2023/02/27 04:12:48;;;;;;;7.00;2.78;;;1.50;99.90;;;;;;5018850;28;20264;-77
2023/02/27 04:15:51;;;;;;;9.03;1.70;;;1.50;99.90;;;;;;5016409;28;20184;-78
2023/02/27 04:18:32;;;;;;;5.37;1.53;;;1.70;99.90;;;;;;4998714;28;20587;-77
2023/02/27 04:21:32;;;;;;;5.93;1.77;;;1.70;99.90;;;;;;5017060;28;20235;-77
2023/02/27 04:24:28;;;;;;;3.47;1.60;;;1.50;99.90;;;;;;5017182;28;20262;-87
2023/02/27 04:26:57;;;;;;;10.83;1.87;;;1.50;99.90;;;;;;5015983;28;20180;-77
2023/02/27 04:29:34;;;;;;;2.63;1.83;;;1.70;99.90;;;;;;5015743;28;20218;-77
2023/02/27 04:32:08;;;;;;;3.30;1.60;;;1.60;99.90;;;;;;5016015;28;20168;-89
2023/02/27 04:34:40;;;;;;;9.50;1.97;;;1.40;99.90;;;;;;5015668;28;20195;-78
2023/02/27 04:37:30;;;;;;;3.45;1.60;;;1.30;99.90;;;;;;5015842;28;20517;-77
2023/02/27 04:40:05;;;;;;;6.83;1.40;;;1.30;99.90;;;;;;5015595;28;20163;-76
2023/02/27 04:42:34;;;;;;;5.63;1.93;;;1.50;99.90;;;;;;4998053;28;20608;-78
2023/02/27 04:45:04;;;;;;;5.65;1.65;;;1.40;99.90;;;;;;5015714;28;20168;-77
2023/02/27 04:47:35;;;;;;;2.95;1.60;;;1.30;99.90;;;;;;5015108;28;20211;-77
2023/02/27 04:50:08;;;;;;;5.23;1.97;;;1.40;99.90;;;;;;5015354;28;20633;-87
2023/02/27 04:52:41;;;;;;;4.43;1.60;;;1.30;99.90;;;;;;4996444;28;20219;-77
2023/02/27 04:55:20;;;;;;;2.35;1.42;;;1.10;99.90;;;;;;5015175;28;20200;-77
2023/02/27 04:57:54;;;;;;;5.03;1.95;;;1.00;99.90;;;;;;5015296;28;20194;-78
2023/02/27 05:00:22;;;;;;;3.93;1.97;;;1.00;99.90;;;;;;5015456;28;20172;-78
2023/02/27 05:02:57;;;;;;;7.27;1.73;;;1.10;99.90;;;;;;5015749;28;20211;-77
2023/02/27 05:05:32;;;;;;;3.53;1.67;;;1.10;99.90;;;;;;4997621;28;20482;-80
2023/02/27 05:08:09;;;;;;;9.23;2.65;;;1.20;99.90;;;;;;5014790;28;20275;-78
2023/02/27 05:10:38;;;;;;;3.92;1.60;;;1.30;99.90;;;;;;4997256;28;20226;-79
2023/02/27 05:13:08;;;;;;;6.18;1.75;;;1.30;99.90;;;;;;4996487;28;20188;-75
2023/02/27 05:15:48;;;;;;;6.73;1.90;;;1.30;99.90;;;;;;5014365;28;20637;-76
2023/02/27 05:18:17;;;;;;;7.23;2.20;;;1.20;99.90;;;;;;5014610;28;20580;-78
2023/02/27 05:20:46;;;;;;;2.50;1.48;;;1.20;99.90;;;;;;4996960;28;20175;-80
2023/02/27 05:23:17;;;;;;;6.37;1.83;;;1.20;99.90;;;;;;5014231;28;20211;-76
2023/02/27 05:26:21;;;;;;;3.00;1.63;;;1.00;99.90;;;;;;5013827;28;20176;-75
2023/02/27 05:28:56;;;;;;;4.17;1.50;;;1.00;99.90;;;;;;4996318;28;20246;-76
2023/02/27 05:31:55;;;;;;;5.87;1.87;;;1.30;99.90;;;;;;4996285;28;20191;-76
2023/02/27 05:34:27;;;;;;;4.72;1.80;;;1.30;99.90;;;;;;5013531;28;20200;-77
2023/02/27 05:36:58;;;;;;;4.03;2.35;;;1.10;99.90;;;;;;5014082;28;20195;-76
2023/02/27 05:39:29;;;;;;;11.65;1.83;;;1.10;99.90;;;;;;5013481;28;20164;-77
2023/02/27 05:42:10;;;;;;;6.75;2.25;;;1.30;99.90;;;;;;5013721;28;20167;-77
2023/02/27 05:44:41;;;;;;;11.60;2.00;;;1.30;99.90;;;;;;5013537;28;20546;-78
2023/02/27 05:47:12;;;;;;;4.20;1.80;;;1.10;99.90;;;;;;5013316;28;20242;-78
2023/02/27 05:50:06;;;;;;;5.50;1.97;;;1.10;99.90;;;;;;4980287;28;20184;-77
2023/02/27 05:52:34;;;;;;;1.97;1.70;;;0.90;99.90;;;;;;5013927;28;20172;-77
2023/02/27 05:55:22;;;;;;;7.57;1.50;;;0.80;99.90;;;;;;4995602;28;20578;-77
2023/02/27 05:57:57;;;;;;;2.17;1.60;;;0.90;99.90;;;;;;5013605;28;20513;-76
2023/02/27 06:00:40;;;;;;;4.70;2.07;;;1.00;99.90;;;;;;5013548;28;20192;-76
2023/02/27 06:03:05;;;;;;;4.20;1.83;;;0.90;99.90;;;;;;5013756;28;20208;-78
2023/02/27 06:05:31;;;;;;;10.97;1.80;;;1.00;99.90;;;;;;5012544;28;20169;-77
2023/02/27 06:07:57;;;;;;;3.90;2.28;;;0.90;99.90;;;;;;5013268;28;20279;-76
2023/02/27 06:10:23;;;;;;;1.93;1.60;;;0.90;99.90;;;;;;5013296;28;20200;-76
2023/02/27 06:12:48;;;;;;;6.10;2.40;;;0.80;99.90;;;;;;5013091;28;20541;-76
2023/02/27 06:15:16;;;;;;;19.80;2.60;;;0.80;99.90;;;;;;5013327;28;20256;-76
2023/02/27 06:17:41;;;;;;;6.13;2.73;;;0.80;99.90;;;;;;4995846;28;20164;-76
2023/02/27 06:20:08;;;;;;;7.73;2.30;;;0.90;99.90;;;;;;5013248;28;20164;-78
2023/02/27 06:22:34;;;;;;;4.20;2.37;;;0.70;99.90;;;;;;4995756;28;20183;-77
2023/02/27 06:25:00;;;;;;;9.00;2.70;;;1.00;99.90;;;;;;5012942;28;20183;-77
2023/02/27 06:27:25;;;;;;;8.10;2.60;;;0.90;99.90;;;;;;5013202;28;20176;-77
2023/02/27 06:29:52;;;;;;;4.13;1.80;;;1.00;99.90;;;;;;4995395;28;20221;-77
2023/02/27 06:32:18;;;;;;;3.03;2.00;;;1.20;99.90;;;;;;5012993;28;20165;-78
2023/02/27 06:34:44;;;;;;;16.40;2.57;;;1.30;99.90;;;;;;4995349;28;20261;-77
2023/02/27 06:37:09;;;;;;;5.80;2.75;;;1.40;99.90;;;;;;5012971;28;20656;-77
2023/02/27 06:39:35;;;;;;;4.37;2.50;;;1.40;99.90;;;;;;5012648;28;20172;-79
2023/02/27 06:42:01;;;;;;;2.55;2.10;;;1.50;99.90;;;;;;5011776;28;20175;-77
2023/02/27 06:44:26;;;;;;;6.13;2.60;;;1.40;99.90;;;;;;5012916;28;20565;-77
2023/02/27 06:46:52;;;;;;;4.93;2.57;;;1.20;99.90;;;;;;5013050;28;20535;-77
2023/02/27 06:49:17;;;;;;;8.10;2.90;;;1.20;99.90;;;;;;5012638;28;20208;-77
2023/02/27 06:51:43;;;;;;;4.80;2.10;;;1.20;99.90;;;;;;5012851;28;20168;-78
2023/02/27 06:54:09;;;;;;;8.55;2.25;;;1.20;99.90;;;;;;5012022;28;20297;-78
2023/02/27 06:56:34;;;;;;;6.30;2.40;;;1.00;99.90;;;;;;5012169;28;20188;-76
2023/02/27 06:59:00;;;;;;;10.68;2.70;;;1.10;99.90;;;;;;4994717;28;20223;-77
2023/02/27 07:01:25;;;;;;;5.27;2.17;;;1.20;99.90;;;;;;5012336;28;20164;-77
2023/02/27 07:03:51;;;;;;;5.50;2.00;;;1.20;99.90;;;;;;5012328;28;20250;-79
2023/02/27 07:06:17;;;;;;;6.70;2.63;;;1.30;99.90;;;;;;4991149;28;20234;-79
2023/02/27 07:08:43;;;;;;;8.03;2.60;;;1.40;99.90;;;;;;5010943;28;20232;-84
2023/02/27 07:11:08;;;;;;;19.38;3.15;;;1.20;99.90;;;;;;5011719;28;20180;-79
2023/02/27 07:13:35;;;;;;;12.10;3.67;;;1.10;99.90;;;;;;5010728;28;20685;-78
2023/02/27 07:16:00;;;;;;;6.20;3.03;;;1.10;99.90;;;;;;5012681;28;20212;-78
2023/02/27 07:18:26;;;;;;;13.23;2.87;;;1.10;99.90;;;;;;5016114;28;20207;-78
2023/02/27 07:20:54;;;;;;;8.82;2.35;;;1.20;99.90;;;;;;5016315;28;20655;-87
2023/02/27 07:23:20;;;;;;;9.20;2.90;;;1.30;99.90;;;;;;5016073;28;20192;-80
2023/02/27 07:25:46;;;;;;;4.80;2.17;;;1.60;99.90;;;;;;5016222;28;20172;-77
2023/02/27 07:28:12;;;;;;;14.77;2.90;;;1.40;99.90;;;;;;4998437;28;20212;-77
2023/02/27 07:30:38;;;;;;;13.25;3.42;;;1.40;99.90;;;;;;5016277;28;20218;-81
2023/02/27 07:33:04;;;;;;;5.68;2.40;;;1.30;99.90;;;;;;5015932;28;20238;-77
2023/02/27 07:35:30;;;;;;;18.83;3.63;;;1.40;99.90;;;;;;5016117;28;20195;-77
2023/02/27 07:37:56;;;;;;;15.83;3.07;;;1.50;99.90;;;;;;5015672;28;20169;-77
2023/02/27 07:40:21;;;;;;;6.67;3.33;;;1.60;99.90;;;;;;5015832;28;20169;-77
2023/02/27 07:42:47;;;;;;;10.47;2.67;;;1.70;99.90;;;;;;5015258;28;20669;-77
2023/02/27 07:45:13;;;;;;;8.50;3.63;;;1.50;99.90;;;;;;5015461;28;20180;-85
2023/02/27 07:47:39;;;;;;;8.73;2.60;;;1.60;99.90;;;;;;4997704;28;20211;-77
2023/02/27 07:50:05;;;;;;;7.87;2.87;;;1.50;99.90;;;;;;5015876;28;20180;-77
2023/02/27 07:52:31;;;;;;;20.80;3.20;;;1.50;99.90;;;;;;4998888;28;20171;-78
2023/02/27 07:54:56;;;;;;;11.18;2.65;;;1.40;99.90;;;;;;5015863;28;20169;-77
2023/02/27 07:57:22;;;;;;;11.77;2.73;;;1.50;99.90;;;;;;5015648;28;20219;-78
2023/02/27 07:59:47;;;;;;;3.20;2.55;;;1.80;99.90;;;;;;5016637;28;20219;-77
2023/02/27 08:02:13;;;;;;;13.23;3.00;;;1.90;99.90;;;;;;5015746;28;20263;-80
2023/02/27 08:04:39;;;;;;;21.50;3.17;;;1.90;99.90;;;;;;4997725;28;20231;-78
2023/02/27 08:07:05;;;;;;;7.20;3.77;;;1.90;99.90;;;;;;5015456;28;20169;-77
2023/02/27 08:09:30;;;;;;;5.63;3.05;;;2.10;99.90;;;;;;5015655;28;20274;-77
2023/02/27 08:11:57;;;;;;;42.97;15.65;;;2.00;99.90;;;;;;5015566;28;20597;-78
2023/02/27 08:14:23;;;;;;;9.63;4.23;;;2.00;99.90;;;;;;5015532;28;20189;-79
2023/02/27 08:16:49;;;;;;;7.05;3.38;;;2.10;99.90;;;;;;4997857;28;20175;-78
2023/02/27 08:19:14;;;;;;;14.77;3.10;;;2.10;99.90;;;;;;5015426;28;20574;-78
2023/02/27 08:21:40;;;;;;;15.30;3.88;;;2.20;99.90;;;;;;5015295;28;20184;-81
2023/02/27 08:24:06;;;;;;;6.85;3.40;;;2.20;99.90;;;;;;5015297;28;20528;-77
2023/02/27 08:26:32;;;;;;;14.48;3.92;;;2.20;99.90;;;;;;5015255;28;20180;-82
2023/02/27 08:28:58;;;;;;;7.78;4.20;;;2.30;99.90;;;;;;5015262;28;20290;-77
2023/02/27 08:31:23;;;;;;;9.75;6.40;;;2.50;99.90;;;;;;5015010;28;20345;-76
2023/02/27 08:33:49;;;;;;;5.03;3.28;;;2.40;99.90;;;;;;5014857;28;20189;-80
2023/02/27 08:36:15;;;;;;;10.48;4.70;;;2.50;99.90;;;;;;5015787;28;20642;-76
2023/02/27 08:38:42;;;;;;;5.85;2.80;;;2.60;99.90;;;;;;5015272;28;20165;-80
2023/02/27 08:41:07;;;;;;;3.60;2.83;;;2.60;99.90;;;;;;4993768;28;20184;-82
2023/02/27 08:43:33;;;;;;;10.43;3.35;;;2.50;99.90;;;;;;5011074;28;20500;-77
2023/02/27 08:45:58;;;;;;;10.40;4.07;;;2.50;99.90;;;;;;5008163;28;20687;-75
2023/02/27 08:48:24;;;;;;;9.20;2.85;;;2.70;99.90;;;;;;5007285;28;20215;-79
2023/02/27 08:50:50;;;;;;;7.45;3.78;;;2.80;99.90;;;;;;5013961;28;20165;-77
2023/02/27 08:53:16;;;;;;;4.88;3.00;;;2.90;99.90;;;;;;5013326;28;20200;-82
2023/02/27 08:55:42;;;;;;;9.43;2.97;;;2.90;99.90;;;;;;5016870;28;20188;-78
2023/02/27 08:58:08;;;;;;;16.25;4.07;;;2.90;99.90;;;;;;5012837;28;20592;-78
2023/02/27 09:00:34;;;;;;;16.70;3.75;;;3.10;99.90;;;;;;5014217;28;20633;-83
2023/02/27 09:03:00;;;;;;;2.65;2.45;;;3.30;99.90;;;;;;5013169;28;20277;-86
2023/02/27 09:05:26;;;;;;;8.38;2.95;;;3.30;99.90;;;;;;5014239;28;20169;-77
2023/02/27 09:07:52;;;;;;;10.48;3.42;;;3.40;99.90;;;;;;4996182;28;20563;-81
2023/02/27 09:10:17;;;;;;;4.57;2.88;;;3.50;99.90;;;;;;4999359;28;20168;-87
2023/02/27 09:12:43;;;;;;;5.32;2.70;;;3.50;99.90;;;;;;4996831;28;20319;-78
2023/02/27 09:15:10;;;;;;;8.38;3.15;;;3.60;99.90;;;;;;5014627;28;20173;-77
2023/02/27 09:17:36;;;;;;;6.07;2.70;;;3.70;99.90;;;;;;5013928;28;20192;-78
2023/02/27 09:20:03;;;;;;;7.82;3.13;;;3.80;99.90;;;;;;5013376;28;20209;-77
2023/02/27 09:22:29;;;;;;;11.52;4.40;;;3.90;99.90;;;;;;5013452;28;20187;-77
2023/02/27 09:24:55;;;;;;;10.50;3.13;;;3.90;99.90;;;;;;5014840;28;20160;-81
2023/02/27 09:27:22;;;;;;;12.45;2.97;;;4.00;99.90;;;;;;5014189;28;20544;-79
2023/02/27 09:29:54;;;;;;;15.25;3.10;;;4.00;99.90;;;;;;5014214;28;20205;-77
2023/02/27 09:32:23;;;;;;;8.13;3.28;;;4.20;99.90;;;;;;5014461;28;20168;-81
2023/02/27 09:34:48;;;;;;;5.13;2.67;;;4.00;99.90;;;;;;5014475;28;20173;-78
2023/02/27 09:37:15;;;;;;;9.73;3.85;;;3.90;99.90;;;;;;5014629;28;20219;-84
2023/02/27 09:39:41;;;;;;;4.90;2.67;;;4.00;99.90;;;;;;5013753;28;20180;-80
2023/02/27 09:42:26;;;;;;;10.50;2.63;;;4.10;99.90;;;;;;5012783;28;20267;-81
2023/02/27 09:44:56;;;;;;;6.95;2.95;;;4.20;99.90;;;;;;5014285;28;20192;-82
2023/02/27 09:47:24;;;;;;;7.88;2.40;;;4.30;99.90;;;;;;5013896;28;20183;-79
2023/02/27 09:50:06;;;;;;;2.60;2.08;;;4.30;99.90;;;;;;5013749;28;20172;-79
2023/02/27 09:52:35;;;;;;;3.95;2.33;;;4.30;99.90;;;;;;5013563;28;20160;-85
2023/02/27 09:55:01;;;;;;;3.25;1.92;;;4.20;99.90;;;;;;5013975;28;20164;-81
2023/02/27 09:57:33;;;;;;;4.55;2.47;;;4.20;99.90;;;;;;4996287;28;20238;-79
2023/02/27 10:00:29;;;;;;;7.55;2.75;;;4.20;99.90;;;;;;5013633;28;20172;-78
2023/02/27 10:02:58;;;;;;;11.93;2.72;;;4.30;99.90;;;;;;4993169;28;20223;-78
2023/02/27 10:05:41;;;;;;;3.42;2.80;;;4.40;99.90;;;;;;4993923;28;20177;-78
2023/02/27 10:08:20;;;;;;;3.25;1.85;;;4.50;99.90;;;;;;4976180;28;20610;-77
2023/02/27 10:11:02;;;;;;;3.17;1.90;;;4.50;99.90;;;;;;4993559;28;20173;-77
2023/02/27 10:13:43;;;;;;;4.63;2.33;;;4.30;99.90;;;;;;4993481;28;20220;-78
2023/02/27 10:16:12;;;;;;;4.30;1.60;;;4.20;99.90;;;;;;4993605;28;20248;-78
2023/02/27 10:18:58;;;;;;;5.20;1.60;;;4.30;99.90;;;;;;4993896;28;20236;-77
2023/02/27 10:21:38;;;;;;;7.22;2.20;;;4.30;99.90;;;;;;4993007;28;20181;-78
2023/02/27 10:24:13;;;;;;;12.27;1.92;;;4.40;99.90;;;;;;4993075;28;20669;-78
2023/02/27 10:26:41;;;;;;;4.00;1.65;;;4.60;99.90;;;;;;4993468;28;20200;-78
2023/02/27 10:29:19;;;;;;;18.92;1.80;;;4.80;99.90;;;;;;4993343;28;20197;-78
2023/02/27 10:31:47;;;;;;;3.72;1.30;;;4.80;99.90;;;;;;4975941;28;20188;-83
2023/02/27 10:34:15;;;;;;;4.65;1.75;;;4.70;99.90;;;;;;4993527;28;20735;-77
2023/02/27 10:36:44;;;;;;;5.97;1.30;;;4.60;99.90;;;;;;4993831;28;20169;-79
2023/02/27 10:39:14;;;;;;;12.55;2.35;;;4.70;99.90;;;;;;4993549;28;20525;-78
2023/02/27 10:41:42;;;;;;;11.35;1.77;;;4.80;99.90;;;;;;4993641;28;20180;-77
2023/02/27 10:44:13;;;;;;;4.88;1.58;;;4.80;99.90;;;;;;4993236;28;20193;-77
2023/02/27 10:46:40;;;;;;;5.93;2.60;;;4.80;99.90;;;;;;4994101;28;20215;-80
2023/02/27 10:49:16;;;;;;;3.05;1.38;;;4.70;99.90;;;;;;4993565;28;20292;-78
2023/02/27 10:51:43;;;;;;;10.40;1.88;;;4.80;99.90;;;;;;4992777;28;20212;-78
2023/02/27 10:54:24;;;;;;;3.83;2.20;;;4.70;99.90;;;;;;4996734;28;20192;-77
2023/02/27 10:56:55;;;;;;;9.63;1.83;;;4.90;99.90;;;;;;5002609;28;20203;-77
2023/02/27 10:59:39;;;;;;;1.40;1.27;;;5.00;99.90;;;;;;5019346;28;20730;-77
2023/02/27 11:02:16;;;;;;;7.85;1.70;;;5.00;99.90;;;;;;5031207;28;20175;-78
2023/02/27 11:04:57;;;;;;;2.38;1.52;;;5.00;99.90;;;;;;5012335;28;20200;-78
2023/02/27 11:07:35;;;;;;;2.60;1.48;;;5.00;99.90;;;;;;5011278;28;20641;-78
2023/02/27 11:10:26;;;;;;;5.28;1.65;;;5.10;99.90;;;;;;5012566;28;20286;-79
2023/02/27 11:13:17;;;;;;;9.98;1.88;;;5.20;99.90;;;;;;5013320;28;20204;-83
2023/02/27 11:15:42;;;;;;;3.97;1.38;;;5.50;99.90;;;;;;4995201;28;20633;-88
2023/02/27 11:18:30;;;;;;;3.10;1.50;;;5.40;99.90;;;;;;5011977;28;20179;-77
2023/02/27 11:21:18;;;;;;;2.80;1.45;;;5.40;99.90;;;;;;5012758;28;20618;-78
2023/02/27 11:24:00;;;;;;;3.05;1.60;;;5.30;99.90;;;;;;5013408;28;20189;-77
2023/02/27 11:26:35;;;;;;;7.68;1.42;;;5.30;99.90;;;;;;5012719;28;20172;-79
2023/02/27 11:29:13;;;;;;;7.82;1.42;;;5.30;99.90;;;;;;5012755;28;20219;-79
2023/02/27 11:32:03;;;;;;;2.72;1.50;;;5.40;99.90;;;;;;5012657;28;20188;-78
2023/02/27 11:34:36;;;;;;;5.88;1.75;;;5.60;99.90;;;;;;5011581;28;20671;-77
2023/02/27 11:37:20;;;;;;;1.73;1.30;;;5.40;99.90;;;;;;5012151;28;20226;-78
2023/02/27 11:39:56;;;;;;;5.72;1.50;;;5.40;99.90;;;;;;5011705;28;20169;-77
2023/02/27 11:42:34;;;;;;;3.88;1.75;;;5.50;99.90;;;;;;5011844;28;20637;-79
2023/02/27 11:45:18;;;;;;;2.25;1.50;;;5.60;99.90;;;;;;5014351;28;20240;-93
2023/02/27 11:47:50;;;;;;;4.25;1.70;;;5.60;99.90;;;;;;5014933;28;20204;-81
2023/02/27 11:50:24;;;;;;;3.03;1.50;;;5.80;99.90;;;;;;5014518;28;20156;-92
2023/02/27 11:52:56;;;;;;;4.45;1.70;;;5.70;99.90;;;;;;5015165;28;20188;-90
2023/02/27 11:55:26;;;;;;;2.28;1.30;;;5.70;99.90;;;;;;5014614;28;20257;-90
2023/02/27 11:58:00;;;;;;;13.30;2.08;;;5.70;99.90;;;;;;5014407;28;20176;-91
2023/02/27 12:00:35;;;;;;;2.50;1.45;;;5.80;99.90;;;;;;5013872;28;20652;-90
2023/02/27 12:03:10;;;;;;;3.65;1.27;;;5.80;99.90;;;;;;5017000;28;20667;-91
2023/02/27 12:05:58;;;;;;;1.50;1.40;;;5.70;99.90;;;;;;5017474;28;20644;-91
2023/02/27 12:08:30;;;;;;;1.88;1.25;;;5.80;99.90;;;;;;5017419;28;20215;-90
2023/02/27 12:11:04;;;;;;;1.50;1.30;;;5.90;99.90;;;;;;5017734;28;20173;-90
2023/02/27 12:13:35;;;;;;;3.03;1.50;;;5.90;99.90;;;;;;5017391;28;20184;-86
2023/02/27 12:16:21;;;;;;;5.85;1.42;;;5.80;99.90;;;;;;5017572;28;20168;-91
2023/02/27 12:19:09;;;;;;;3.72;1.63;;;5.80;99.90;;;;;;5017386;28;20177;-88
2023/02/27 12:21:43;;;;;;;5.47;1.50;;;5.80;99.90;;;;;;4979347;28;20216;-89
2023/02/27 12:24:20;;;;;;;2.45;1.23;;;5.80;99.90;;;;;;5016963;28;20196;-90
2023/02/27 12:26:48;;;;;;;4.55;1.77;;;5.90;99.90;;;;;;5014648;28;20168;-78
2023/02/27 12:29:29;;;;;;;1.77;1.08;;;6.00;99.90;;;;;;5011938;28;20208;-79
2023/02/27 12:32:22;;;;;;;3.63;1.20;;;6.00;99.90;;;;;;5015350;28;20655;-78
2023/02/27 12:34:58;;;;;;;2.13;0.90;;;6.10;99.90;;;;;;5005177;28;20192;-79
2023/02/27 12:37:27;;;;;;;3.58;0.98;;;6.10;99.90;;;;;;5015142;28;20191;-80
2023/02/27 12:39:55;;;;;;;1.67;1.02;;;6.00;99.90;;;;;;5015119;28;20262;-80
2023/02/27 12:42:51;;;;;;;6.95;1.00;;;6.00;99.90;;;;;;5014950;28;20173;-79
2023/02/27 12:45:25;;;;;;;5.38;1.05;;;6.00;99.90;;;;;;4977055;28;20238;-79
2023/02/27 12:47:53;;;;;;;1.30;1.10;;;6.10;99.90;;;;;;5028449;28;20207;-78
2023/02/27 12:50:21;;;;;;;2.25;1.02;;;6.10;99.90;;;;;;5017834;28;20382;-80
2023/02/27 12:53:22;;;;;;;2.03;1.15;;;6.20;99.90;;;;;;5030309;28;20282;-79
2023/02/27 12:56:17;;;;;;;3.72;1.30;;;6.30;99.90;;;;;;5014553;28;20649;-78
2023/02/27 12:59:25;;;;;;;2.35;1.05;;;6.40;99.90;;;;;;5016366;28;20216;-78
2023/02/27 13:02:14;;;;;;;3.83;1.52;;;6.40;99.90;;;;;;5014962;28;20235;-90
2023/02/27 13:05:08;;;;;;;11.95;1.83;;;6.40;99.90;;;;;;4986584;28;20223;-86
2023/02/27 13:07:41;;;;;;;13.60;1.30;;;6.40;99.90;;;;;;5007881;28;20204;-78
2023/02/27 13:10:20;;;;;;;1.65;0.93;;;6.30;99.90;;;;;;5006498;28;20644;-82
2023/02/27 13:12:56;;;;;;;3.30;0.90;;;6.20;99.90;;;;;;5025945;28;20187;-90
2023/02/27 13:15:29;;;;;;;9.45;1.25;;;6.30;99.90;;;;;;5021520;28;20173;-89
2023/02/27 13:18:08;;;;;;;0.93;0.93;;;6.40;99.90;;;;;;5023368;28;20538;-91
2023/02/27 13:20:43;;;;;;;2.03;1.00;;;6.40;99.90;;;;;;5014396;28;20238;-83
2023/02/27 13:23:28;;;;;;;3.55;1.27;;;6.30;99.90;;;;;;5014801;28;20309;-79
2023/02/27 13:25:56;;;;;;;3.72;1.40;;;6.30;99.90;;;;;;5012802;28;20168;-78